Time;durP1;ratioP1;P1;durP2;ratioP2;P2;SDS_P1;SDS_P2;PMS_P1;PMS_P2;Temp;Humidity;BMP_temperature;BMP_pressure;BME280_temperature;BME280_humidity;BME280_pressure;Samples;Min_cycle;Max_cycle;Signal;HPM_P1;HPM_P2
2023/03/20 00:02:21;;;;;;;8.07;7.00;;;;;;;5.51;100.00;100833.47;4926174;29;20135;-80
2023/03/20 00:04:48;;;;;;;10.43;8.07;;;;;;;5.48;100.00;100833.47;4915517;29;20055;-83
2023/03/20 00:07:15;;;;;;;8.00;6.43;;;;;;;5.46;100.00;100829.06;4947693;28;20072;-82
2023/03/20 00:09:43;;;;;;;8.93;6.87;;;;;;;5.45;100.00;100830.81;4947162;28;20883;-82
2023/03/20 00:12:14;;;;;;;10.63;7.30;;;;;;;5.43;100.00;100834.31;4899978;29;20511;-80
2023/03/20 00:14:41;;;;;;;11.23;7.70;;;;;;;5.39;100.00;100843.03;4916797;29;20051;-80
2023/03/20 00:17:17;;;;;;;8.93;6.97;;;;;;;5.35;100.00;100835.16;4948011;28;20052;-83
2023/03/20 00:19:43;;;;;;;9.53;7.27;;;;;;;5.26;100.00;100836.88;4932957;29;20044;-80
2023/03/20 00:22:11;;;;;;;10.43;7.50;;;;;;;5.23;100.00;100832.50;4931040;29;20515;-83
2023/03/20 00:24:37;;;;;;;9.50;6.97;;;;;;;5.16;100.00;100835.97;4881955;29;20565;-80
2023/03/20 00:27:04;;;;;;;8.93;6.90;;;;;;;5.11;100.00;100827.19;4942205;28;20775;-82
2023/03/20 00:29:33;;;;;;;7.90;6.43;;;;;;;5.06;100.00;100827.19;4947919;29;20079;-82
2023/03/20 00:31:59;;;;;;;9.73;6.73;;;;;;;5.06;100.00;100834.19;4947249;28;20149;-83
2023/03/20 00:34:28;;;;;;;8.20;6.33;;;;;;;5.04;100.00;100821.09;4930212;29;20056;-82
2023/03/20 00:36:55;;;;;;;7.87;5.60;;;;;;;5.01;100.00;100813.19;4940705;28;20075;-80
2023/03/20 00:39:22;;;;;;;9.20;7.30;;;;;;;5.02;100.00;100812.31;4928293;29;20035;-80
2023/03/20 00:42:00;;;;;;;9.50;7.33;;;;;;;5.08;100.00;100811.47;4927953;29;20638;-79
2023/03/20 00:44:31;;;;;;;9.43;7.13;;;;;;;5.05;100.00;100822.81;4923464;29;20044;-80
2023/03/20 00:47:00;;;;;;;11.10;7.77;;;;;;;5.00;100.00;100818.44;4913066;29;20048;-80
2023/03/20 00:49:32;;;;;;;12.37;8.57;;;;;;;4.90;100.00;100817.50;4902714;29;20039;-82
2023/03/20 00:52:00;;;;;;;9.87;7.07;;;;;;;4.83;100.00;100826.19;4915538;29;20505;-78
2023/03/20 00:54:27;;;;;;;8.60;7.30;;;;;;;4.84;100.00;100827.94;4932186;28;20048;-80
2023/03/20 00:57:02;;;;;;;11.77;7.47;;;;;;;4.80;100.00;100831.44;4912606;29;20055;-81
2023/03/20 00:59:32;;;;;;;11.33;7.90;;;;;;;4.76;100.00;100832.25;4912681;29;20033;-80
2023/03/20 01:02:01;;;;;;;12.77;7.83;;;;;;;4.70;100.00;100824.34;4945781;28;20103;-83
2023/03/20 01:04:34;;;;;;;10.60;7.87;;;;;;;4.68;100.00;100823.47;4933285;29;20040;-79
2023/03/20 01:07:01;;;;;;;9.97;7.47;;;;;;;4.69;100.00;100823.47;4951287;28;20054;-79
2023/03/20 01:09:28;;;;;;;11.27;7.77;;;;;;;4.67;100.00;100825.22;4937639;29;20046;-79
2023/03/20 01:11:55;;;;;;;11.20;7.57;;;;;;;4.61;100.00;100825.19;4953201;28;20548;-79
2023/03/20 01:14:21;;;;;;;12.93;8.43;;;;;;;4.57;100.00;100823.41;4937900;29;20036;-79
2023/03/20 01:16:48;;;;;;;10.63;8.23;;;;;;;4.53;100.00;100826.88;4905917;29;20485;-80
2023/03/20 01:19:15;;;;;;;10.50;8.07;;;;;;;4.47;100.00;100822.50;4969031;28;20051;-79
2023/03/20 01:21:42;;;;;;;11.40;8.00;;;;;;;4.46;100.00;100825.97;4955091;28;20490;-79
2023/03/20 01:24:09;;;;;;;12.73;8.47;;;;;;;4.44;100.00;100829.41;4935002;29;20103;-79
2023/03/20 01:26:38;;;;;;;11.50;8.27;;;;;;;4.48;100.00;100826.84;4934363;29;20050;-79
2023/03/20 01:29:24;;;;;;;12.43;8.17;;;;;;;4.44;100.00;100826.81;4922016;29;20044;-79
2023/03/20 01:31:51;;;;;;;12.63;8.20;;;;;;;4.40;100.00;100828.53;4938099;29;20063;-79
2023/03/20 01:34:19;;;;;;;12.00;8.47;;;;;;;4.38;100.00;100837.25;4955685;28;20070;-80
2023/03/20 01:36:49;;;;;;;11.77;8.37;;;;;;;4.34;100.00;100845.91;4969784;28;20048;-80
2023/03/20 01:39:17;;;;;;;9.53;7.10;;;;;;;4.31;100.00;100844.16;4937953;28;20058;-80
2023/03/20 01:41:45;;;;;;;9.00;6.30;;;;;;;4.29;100.00;100837.16;5016019;23;20500;-79
2023/03/20 01:44:19;;;;;;;9.37;6.40;;;;;;;4.31;100.00;100838.94;4958104;28;20046;-81
2023/03/20 01:46:46;;;;;;;7.97;5.40;;;;;;;4.27;100.00;100839.75;4971996;28;20043;-82
2023/03/20 01:49:18;;;;;;;9.20;5.60;;;;;;;4.22;100.00;100831.88;4946465;29;20050;-80
2023/03/20 01:51:47;;;;;;;10.70;6.80;;;;;;;4.20;100.00;100833.63;4971458;28;20039;-81
2023/03/20 01:54:18;;;;;;;9.77;7.60;;;;;;;4.18;100.00;100830.09;4961240;28;20047;-81
2023/03/20 01:56:56;;;;;;;9.90;7.53;;;;;;;4.18;100.00;100832.72;4974492;28;20097;-81
2023/03/20 01:59:36;;;;;;;9.67;6.93;;;;;;;4.15;100.00;100839.66;4978464;28;20042;-81
2023/03/20 02:02:18;;;;;;;10.53;7.27;;;;;;;4.12;100.00;100840.53;4957591;28;20043;-81
2023/03/20 02:04:47;;;;;;;9.47;6.87;;;;;;;4.11;100.00;100832.66;4934715;29;20054;-82
2023/03/20 02:07:15;;;;;;;9.93;7.37;;;;;;;4.11;100.00;100830.91;4942156;29;20043;-81
2023/03/20 02:09:42;;;;;;;9.53;7.30;;;;;;;4.14;100.00;100832.69;4933425;29;20039;-82
2023/03/20 02:12:09;;;;;;;11.43;8.70;;;;;;;4.24;100.00;100829.28;4965355;28;20673;-82
2023/03/20 02:14:36;;;;;;;12.97;8.73;;;;;;;4.23;100.00;100835.38;4940229;29;20464;-81
2023/03/20 02:17:05;;;;;;;11.33;8.47;;;;;;;4.27;100.00;100831.03;4955604;29;20050;-84
2023/03/20 02:19:57;;;;;;;14.10;9.10;;;;;;;4.28;100.00;100832.78;4944862;28;20122;-80
2023/03/20 02:22:54;;;;;;;12.23;8.43;;;;;;;4.16;100.00;100844.03;4937582;29;20070;-82
2023/03/20 02:25:50;;;;;;;9.93;7.53;;;;;;;4.14;100.00;100843.16;4938128;28;20432;-81
2023/03/20 02:28:47;;;;;;;11.90;8.37;;;;;;;4.14;100.00;100843.16;4940186;28;20045;-80
2023/03/20 02:31:35;;;;;;;9.63;7.00;;;;;;;4.13;100.00;100841.41;4970745;28;20043;-81
2023/03/20 02:34:18;;;;;;;9.77;7.40;;;;;;;4.04;100.00;100841.31;4955617;28;20118;-82
2023/03/20 02:36:56;;;;;;;11.00;7.57;;;;;;;4.04;100.00;100844.81;4941620;28;20536;-81
2023/03/20 02:39:31;;;;;;;9.70;7.30;;;;;;;4.00;100.00;100839.53;4921057;29;20055;-80
2023/03/20 02:42:11;;;;;;;10.57;7.40;;;;;;;3.98;100.00;100836.03;4961968;28;20493;-81
2023/03/20 02:44:51;;;;;;;9.30;6.63;;;;;;;3.96;100.00;100841.25;4956617;28;20038;-80
2023/03/20 02:47:24;;;;;;;10.80;6.83;;;;;;;4.00;100.00;100840.41;4938094;28;20394;-82
2023/03/20 02:50:15;;;;;;;11.47;7.43;;;;;;;4.00;100.00;100844.75;4971818;28;20043;-80
2023/03/20 02:53:14;;;;;;;10.80;7.93;;;;;;;4.04;100.00;100841.31;4937134;29;20047;-81
2023/03/20 02:55:47;;;;;;;10.93;7.30;;;;;;;4.04;100.00;100843.94;4953398;28;20449;-82
2023/03/20 02:58:20;;;;;;;12.50;8.13;;;;;;;4.07;100.00;100836.13;4970880;28;20137;-80
2023/03/20 03:01:01;;;;;;;10.83;7.53;;;;;;;4.11;100.00;100832.66;4965128;28;20035;-81
2023/03/20 03:03:33;;;;;;;11.43;7.67;;;;;;;4.17;100.00;100843.16;4954746;28;20070;-80
2023/03/20 03:06:14;;;;;;;11.80;7.93;;;;;;;4.24;100.00;100835.38;4947528;28;20074;-80
2023/03/20 03:08:43;;;;;;;11.23;7.50;;;;;;;4.26;100.00;100840.63;4946257;28;20449;-80
2023/03/20 03:14:46;;;;;;;;;;;;;;;4.29;100.00;100842.38;5312179;23;20474;-82
2023/03/20 03:17:15;;;;;;;10.23;7.70;;;;;;;4.31;100.00;100841.56;4991083;28;19945;-78
2023/03/20 03:19:46;;;;;;;12.87;7.87;;;;;;;4.35;100.00;100843.31;4995516;28;20046;-79
2023/03/20 03:22:14;;;;;;;12.23;8.27;;;;;;;4.40;100.00;100845.97;4994879;28;20089;-78
2023/03/20 03:24:52;;;;;;;11.33;7.77;;;;;;;4.38;100.00;100845.97;4989844;28;20042;-79
2023/03/20 03:27:22;;;;;;;12.60;8.00;;;;;;;4.43;100.00;100843.38;4955436;28;20034;-78
2023/03/20 03:29:57;;;;;;;10.60;8.17;;;;;;;4.45;100.00;100834.66;4947886;28;20073;-78
2023/03/20 03:32:30;;;;;;;13.17;9.00;;;;;;;4.48;100.00;100837.31;4955366;28;20057;-79
2023/03/20 03:34:58;;;;;;;12.20;8.50;;;;;;;4.50;100.00;100835.59;4965907;28;20042;-78
2023/03/20 03:37:38;;;;;;;11.13;8.33;;;;;;;4.56;100.00;100831.25;4971761;28;20077;-78
2023/03/20 03:40:45;;;;;;;12.20;8.17;;;;;;;4.59;100.00;100837.38;4956069;28;20066;-78
2023/03/20 03:43:32;;;;;;;12.80;9.77;;;;;;;4.63;100.00;100839.16;4936918;28;20043;-78
2023/03/20 03:46:09;;;;;;;11.90;9.03;;;;;;;4.68;100.00;100844.41;4978983;28;20488;-78
2023/03/20 03:48:44;;;;;;;12.00;8.77;;;;;;;4.68;100.00;100842.66;4947735;28;20102;-78
2023/03/20 03:51:15;;;;;;;11.47;9.20;;;;;;;4.65;100.00;100842.66;4988914;28;20039;-78
2023/03/20 03:53:47;;;;;;;13.70;8.67;;;;;;;4.71;100.00;100841.84;4955830;28;20053;-78
2023/03/20 03:56:17;;;;;;;12.17;9.17;;;;;;;4.70;100.00;100837.44;4968529;28;20057;-78
2023/03/20 03:58:48;;;;;;;14.50;9.37;;;;;;;4.69;100.00;100839.19;4957418;28;20043;-78
2023/03/20 04:01:16;;;;;;;13.67;9.90;;;;;;;4.70;100.00;100842.69;4957311;28;20042;-78
2023/03/20 04:03:49;;;;;;;12.23;9.00;;;;;;;4.70;100.00;100848.78;4972565;28;20050;-78
2023/03/20 04:06:16;;;;;;;11.83;8.63;;;;;;;4.70;100.00;100840.94;4990627;28;20042;-78
2023/03/20 04:08:43;;;;;;;12.57;9.10;;;;;;;4.71;100.00;100841.84;4958592;28;20463;-79
2023/03/20 04:11:15;;;;;;;12.83;9.10;;;;;;;4.73;100.00;100848.81;4953940;28;20043;-78
2023/03/20 04:13:42;;;;;;;11.30;8.20;;;;;;;4.71;100.00;100847.94;4969836;28;20045;-78
2023/03/20 04:16:12;;;;;;;8.93;7.67;;;;;;;4.73;100.00;100850.56;4957687;28;20435;-78
2023/03/20 04:18:40;;;;;;;11.60;8.60;;;;;;;4.74;100.00;100852.31;4969680;28;20045;-78
2023/03/20 04:21:07;;;;;;;11.80;8.80;;;;;;;4.72;100.00;100848.81;4988118;28;20047;-79
2023/03/20 04:23:34;;;;;;;11.43;8.07;;;;;;;4.73;100.00;100847.94;4971333;28;20042;-78
2023/03/20 04:26:01;;;;;;;10.70;7.33;;;;;;;4.74;100.00;100845.34;4965093;28;20046;-78
2023/03/20 04:28:28;;;;;;;9.93;7.23;;;;;;;4.76;100.00;100845.34;4974243;28;20041;-79
2023/03/20 04:30:57;;;;;;;10.33;7.87;;;;;;;4.76;100.00;100853.19;4958366;28;20034;-79
2023/03/20 04:33:25;;;;;;;10.00;7.07;;;;;;;4.77;100.00;100847.09;4989861;28;20049;-78
2023/03/20 04:35:51;;;;;;;11.37;7.30;;;;;;;4.80;100.00;100860.22;4973014;28;20046;-78
2023/03/20 04:38:19;;;;;;;10.30;7.77;;;;;;;4.80;100.00;100852.38;4950601;28;20094;-78
2023/03/20 04:40:46;;;;;;;11.47;8.40;;;;;;;4.82;100.00;100855.84;4985536;28;20034;-79
2023/03/20 04:43:13;;;;;;;9.63;7.50;;;;;;;4.84;100.00;100858.47;4989496;28;20055;-79
2023/03/20 04:45:40;;;;;;;8.53;6.90;;;;;;;4.84;100.00;100861.97;4973644;28;20050;-79
2023/03/20 04:48:07;;;;;;;10.23;8.20;;;;;;;4.84;100.00;100856.72;5006991;28;20100;-79
2023/03/20 04:50:34;;;;;;;10.03;7.77;;;;;;;4.85;100.00;100866.34;4988291;28;20030;-79
2023/03/20 04:53:01;;;;;;;12.13;8.13;;;;;;;4.86;100.00;100865.47;5004502;28;20042;-78
2023/03/20 04:55:27;;;;;;;8.77;7.00;;;;;;;4.89;100.00;100869.88;4989854;28;20089;-78
2023/03/20 04:57:54;;;;;;;9.87;7.70;;;;;;;4.89;100.00;100864.63;5044624;23;20502;-80
2023/03/20 05:00:21;;;;;;;9.63;7.43;;;;;;;4.92;100.00;100868.13;4984836;28;20061;-79
2023/03/20 05:02:48;;;;;;;8.80;7.43;;;;;;;4.94;100.00;100875.97;4971185;28;20187;-80
2023/03/20 05:05:14;;;;;;;9.57;7.77;;;;;;;4.93;100.00;100876.84;5000662;28;20093;-80
2023/03/20 05:07:41;;;;;;;10.17;7.00;;;;;;;4.96;100.00;100876.88;4965439;28;20053;-79
2023/03/20 05:10:08;;;;;;;11.20;7.80;;;;;;;5.01;100.00;100873.41;5006326;28;20093;-78
2023/03/20 05:12:35;;;;;;;9.53;7.67;;;;;;;5.03;100.00;100884.75;4991170;28;20455;-80
2023/03/20 05:15:01;;;;;;;8.80;7.53;;;;;;;5.08;100.00;100883.06;5008037;28;20042;-78
2023/03/20 05:17:29;;;;;;;8.97;7.17;;;;;;;5.11;100.00;100883.94;4981313;28;20035;-79
2023/03/20 05:19:56;;;;;;;8.43;6.63;;;;;;;5.15;100.00;100885.72;4983545;28;20114;-78
2023/03/20 05:22:22;;;;;;;9.77;7.77;;;;;;;5.19;100.00;100879.63;5004642;28;20068;-79
2023/03/20 05:24:49;;;;;;;9.13;7.33;;;;;;;5.19;100.00;100883.09;4990134;28;20434;-79
2023/03/20 05:27:16;;;;;;;9.43;8.10;;;;;;;5.23;100.00;100886.63;4991672;28;20483;-79
2023/03/20 05:29:45;;;;;;;11.13;8.37;;;;;;;5.24;100.00;100880.53;5008252;28;20043;-80
2023/03/20 05:32:11;;;;;;;9.93;7.63;;;;;;;5.25;100.00;100872.66;4989872;28;20089;-78
2023/03/20 05:34:38;;;;;;;10.97;8.83;;;;;;;5.29;100.00;100878.78;4976389;28;20047;-78
2023/03/20 05:37:05;;;;;;;10.23;7.80;;;;;;;5.32;100.00;100863.09;4982403;28;20077;-79
2023/03/20 05:39:31;;;;;;;12.63;8.77;;;;;;;5.44;100.00;100871.00;5000064;28;20129;-80
2023/03/20 05:41:58;;;;;;;12.10;8.30;;;;;;;5.43;100.00;100882.34;4968952;28;20057;-78
2023/03/20 05:44:25;;;;;;;10.53;8.23;;;;;;;5.47;100.00;100873.66;5002066;28;20038;-79
2023/03/20 05:46:51;;;;;;;15.80;10.17;;;;;;;5.55;100.00;100876.25;4986923;28;20054;-79
2023/03/20 05:49:18;;;;;;;13.63;9.80;;;;;;;5.57;100.00;100875.41;5001640;28;20053;-79
2023/03/20 05:51:45;;;;;;;17.80;11.70;;;;;;;5.75;100.00;100868.47;4986821;28;20046;-79
2023/03/20 05:54:12;;;;;;;17.93;11.13;;;;;;;5.74;100.00;100871.97;5002628;28;20049;-80
2023/03/20 05:56:39;;;;;;;15.70;10.60;;;;;;;5.77;100.00;100871.97;4971619;28;20043;-78
2023/03/20 05:59:05;;;;;;;16.20;11.07;;;;;;;5.92;100.00;100872.03;4989070;28;20106;-79
2023/03/20 06:01:32;;;;;;;16.40;11.03;;;;;;;5.97;100.00;100878.19;4988934;28;20053;-79
2023/03/20 06:04:03;;;;;;;15.00;9.77;;;;;;;6.03;100.00;100878.16;4987885;28;20092;-80
2023/03/20 06:06:30;;;;;;;17.17;12.03;;;;;;;6.07;100.00;100887.81;4988482;28;20042;-78
2023/03/20 06:08:56;;;;;;;23.43;13.90;;;;;;;6.11;100.00;100889.56;5003341;28;20097;-78
2023/03/20 06:11:23;;;;;;;23.57;15.23;;;;;;;6.21;100.00;100891.31;4992195;28;20042;-79
2023/03/20 06:13:53;;;;;;;28.30;16.50;;;;;;;6.27;100.00;100897.44;4991483;28;20586;-78
2023/03/20 06:16:20;;;;;;;28.60;16.50;;;;;;;6.31;100.00;100900.09;4990083;28;20042;-78
2023/03/20 06:18:48;;;;;;;29.63;18.50;;;;;;;6.49;100.00;100909.72;5001220;28;20110;-78
2023/03/20 06:21:15;;;;;;;40.63;20.87;;;;;;;6.59;100.00;100911.47;4989349;28;20042;-77
2023/03/20 06:23:41;;;;;;;43.73;21.80;;;;;;;6.66;100.00;100914.97;4982735;28;20541;-78
2023/03/20 06:26:08;;;;;;;39.87;21.47;;;;;;;6.66;100.00;100914.97;4983885;28;20068;-78
2023/03/20 06:28:36;;;;;;;44.40;22.90;;;;;;;6.71;100.00;100921.06;4984275;28;20065;-78
2023/03/20 06:31:02;;;;;;;52.77;25.13;;;;;;;6.82;100.00;100921.97;4983262;28;20034;-78
2023/03/20 06:33:29;;;;;;;47.77;23.73;;;;;;;6.83;100.00;100933.34;5000320;28;20034;-77
2023/03/20 06:35:56;;;;;;;48.17;26.53;;;;;;;6.92;100.00;100928.94;4983479;28;20061;-78
2023/03/20 06:38:23;;;;;;;50.63;25.07;;;;;;;6.90;100.00;100935.94;5003962;28;20092;-79
2023/03/20 06:40:49;;;;;;;56.90;26.67;;;;;;;7.00;100.00;100947.31;4978302;28;20479;-79
2023/03/20 06:43:17;;;;;;;49.27;25.07;;;;;;;7.03;100.00;100947.31;4972529;28;20415;-79
2023/03/20 06:45:44;;;;;;;53.43;27.23;;;;;;;7.22;100.00;100945.50;4973401;28;20144;-78
2023/03/20 06:48:11;;;;;;;55.87;26.63;;;;;;;7.25;100.00;100943.78;4956134;28;20081;-79
2023/03/20 06:50:37;;;;;;;59.67;28.37;;;;;;;7.18;100.00;100943.78;4976933;28;20050;-79
2023/03/20 06:53:05;;;;;;;56.77;26.13;;;;;;;7.18;100.00;100946.41;4972393;28;20062;-80
2023/03/20 06:55:32;;;;;;;57.10;26.73;;;;;;;7.16;100.00;100941.16;4991449;28;20058;-80
2023/03/20 06:57:59;;;;;;;55.17;26.37;;;;;;;7.29;100.00;100934.09;4988761;28;20050;-80
2023/03/20 07:00:26;;;;;;;59.60;27.97;;;;;;;7.31;100.00;100943.75;4980821;28;20042;-80
2023/03/20 07:02:53;;;;;;;48.53;22.93;;;;;;;7.21;100.00;100936.75;4975989;28;20046;-79
2023/03/20 07:05:20;;;;;;;51.00;25.40;;;;;;;7.26;100.00;100942.88;4973478;28;20050;-79
2023/03/20 07:07:47;;;;;;;52.67;25.87;;;;;;;7.23;100.00;100948.16;5005198;28;20034;-79
2023/03/20 07:10:13;;;;;;;56.57;26.77;;;;;;;7.18;100.00;100946.41;4989744;28;20550;-80
2023/03/20 07:12:40;;;;;;;48.30;24.60;;;;;;;7.29;100.00;100940.25;4974087;28;20081;-80
2023/03/20 07:15:07;;;;;;;45.40;23.00;;;;;;;7.21;100.00;100942.00;5003587;28;20048;-79
2023/03/20 07:17:34;;;;;;;49.50;24.63;;;;;;;7.29;100.00;100939.38;5003914;28;20038;-79
2023/03/20 07:20:01;;;;;;;54.13;24.67;;;;;;;7.28;100.00;100935.00;4997190;28;20045;-80
2023/03/20 07:22:30;;;;;;;48.83;23.37;;;;;;;7.27;100.00;100941.13;5005611;28;20042;-79
2023/03/20 07:24:57;;;;;;;54.60;26.10;;;;;;;7.36;100.00;100938.47;4987733;28;20531;-79
2023/03/20 07:27:23;;;;;;;55.70;24.90;;;;;;;7.39;100.00;100938.44;4993383;28;20043;-78
2023/03/20 07:29:51;;;;;;;49.37;23.23;;;;;;;7.38;100.00;100944.59;4997448;28;20070;-80
2023/03/20 07:32:17;;;;;;;54.70;25.27;;;;;;;7.42;100.00;100935.84;4964305;28;20039;-79
2023/03/20 07:34:45;;;;;;;48.63;24.20;;;;;;;7.45;100.00;100937.56;4996569;28;20034;-80
2023/03/20 07:37:12;;;;;;;55.50;25.47;;;;;;;7.54;100.00;100943.66;4977220;28;20047;-78
2023/03/20 07:39:38;;;;;;;47.17;24.60;;;;;;;7.62;100.00;100951.53;4981136;28;20038;-78
2023/03/20 07:42:05;;;;;;;50.23;24.57;;;;;;;7.68;100.00;100943.63;4980171;28;20161;-79
2023/03/20 07:44:32;;;;;;;45.13;22.00;;;;;;;7.76;100.00;100939.22;4984016;28;20065;-78
2023/03/20 07:46:58;;;;;;;49.77;24.00;;;;;;;7.84;100.00;100942.69;5000292;28;20046;-78
2023/03/20 07:49:25;;;;;;;51.57;25.37;;;;;;;7.96;100.00;100948.75;4974877;28;20039;-79
2023/03/20 07:51:55;;;;;;;50.27;23.67;;;;;;;8.07;100.00;100952.19;4991289;28;20109;-79
2023/03/20 07:54:22;;;;;;;49.30;22.90;;;;;;;8.09;100.00;100959.22;4982909;28;20420;-78
2023/03/20 07:56:49;;;;;;;45.77;22.47;;;;;;;8.12;100.00;100953.91;4983886;28;20049;-79
2023/03/20 07:59:16;;;;;;;53.00;24.33;;;;;;;8.23;100.00;100959.09;4985151;28;20054;-79
2023/03/20 08:01:43;;;;;;;49.60;21.70;;;;;;;8.28;100.00;100957.34;4965555;28;20051;-78
2023/03/20 08:04:10;;;;;;;44.93;22.37;;;;;;;8.33;100.00;100958.19;4982798;28;20051;-79
2023/03/20 08:06:40;;;;;;;44.83;21.27;;;;;;;8.36;100.00;100967.84;4995908;28;20042;-78
2023/03/20 08:09:07;;;;;;;45.87;23.43;;;;;;;8.35;100.00;100966.97;4970601;28;20050;-79
2023/03/20 08:11:33;;;;;;;52.53;24.63;;;;;;;8.41;100.00;100964.31;4985868;28;20412;-78
2023/03/20 08:14:00;;;;;;;46.80;22.70;;;;;;;8.49;100.00;100971.25;4998303;28;20149;-78
2023/03/20 08:16:27;;;;;;;46.30;21.27;;;;;;;8.51;100.00;100967.75;4981984;28;20038;-79
2023/03/20 08:18:59;;;;;;;38.87;20.13;;;;;;;8.66;100.00;100974.66;4986678;28;20077;-78
2023/03/20 08:21:28;;;;;;;42.30;21.63;;;;;;;8.70;100.00;100966.72;5005828;28;20053;-79
2023/03/20 08:23:55;;;;;;;44.20;22.50;;;;;;;8.74;100.00;100960.56;5005409;28;21077;-79
2023/03/20 08:26:22;;;;;;;36.90;19.70;;;;;;;8.74;100.00;100965.84;4988591;28;20138;-80
2023/03/20 08:28:49;;;;;;;42.23;20.30;;;;;;;8.81;100.00;100973.66;4971981;28;20050;-79
2023/03/20 08:31:17;;;;;;;41.10;19.27;;;;;;;8.82;100.00;100964.88;5006205;28;20046;-78
2023/03/20 08:33:45;;;;;;;36.33;19.23;;;;;;;8.89;100.00;100964.81;5008792;28;20046;-80
2023/03/20 08:36:14;;;;;;;37.60;19.10;;;;;;;8.85;100.00;100965.72;4992737;28;20098;-79
2023/03/20 08:38:41;;;;;;;34.17;18.00;;;;;;;9.06;100.00;100966.41;4988139;28;20055;-80
2023/03/20 08:41:08;;;;;;;36.45;17.42;;;;;;;9.08;100.00;100956.72;5005962;28;20043;-79
2023/03/20 08:43:35;;;;;;;36.80;17.13;;;;;;;9.19;100.00;100946.97;5008852;28;20084;-79
2023/03/20 08:46:02;;;;;;;36.47;17.23;;;;;;;9.28;100.00;100953.00;5008195;28;20069;-80
2023/03/20 08:48:29;;;;;;;35.55;17.63;;;;;;;9.34;100.00;100946.81;4990251;28;20043;-80
2023/03/20 08:50:56;;;;;;;26.75;15.80;;;;;;;9.45;100.00;100941.41;4996458;28;20050;-79
2023/03/20 08:53:22;;;;;;;31.90;17.33;;;;;;;9.63;100.00;100932.41;4991678;28;20085;-80
2023/03/20 08:55:51;;;;;;;29.77;15.52;;;;;;;9.77;100.00;100944.53;4990547;28;20150;-80
2023/03/20 08:58:19;;;;;;;31.60;16.67;;;;;;;10.06;100.00;100941.50;4989506;28;20582;-80
2023/03/20 09:00:46;;;;;;;28.45;15.52;;;;;;;10.25;100.00;100946.53;4972610;28;20042;-80
2023/03/20 09:03:14;;;;;;;31.35;16.13;;;;;;;10.43;100.00;100947.16;4980033;28;20704;-80
2023/03/20 09:05:44;;;;;;;32.47;14.73;;;;;;;10.41;100.00;100946.28;5007600;28;20034;-79
2023/03/20 09:08:11;;;;;;;27.48;15.35;;;;;;;10.53;100.00;100947.03;4987864;28;20770;-80
2023/03/20 09:10:37;;;;;;;28.00;14.45;;;;;;;10.41;100.00;100951.59;4996751;28;20041;-80
2023/03/20 09:13:04;;;;;;;26.58;13.23;;;;;;;10.37;100.00;100951.66;4996012;28;20044;-79
2023/03/20 09:15:51;;;;;;;27.30;15.07;;;;;;;10.35;100.00;100953.47;4978257;28;20050;-79
2023/03/20 09:18:19;;;;;;;31.27;12.82;;;;;;;10.31;100.00;100957.03;4959846;28;20111;-77
2023/03/20 09:20:46;;;;;;;26.88;13.93;;;;;;;10.18;100.00;100958.09;4956951;28;20070;-79
2023/03/20 09:23:14;;;;;;;28.10;14.50;;;;;;;10.16;100.00;100956.31;4960944;28;20043;-80
2023/03/20 09:25:41;;;;;;;27.00;14.55;;;;;;;10.14;100.00;100957.25;4992539;28;20045;-80
2023/03/20 09:28:08;;;;;;;23.80;12.43;;;;;;;10.03;100.00;100954.75;4991311;28;20541;-79
2023/03/20 09:30:35;;;;;;;25.08;12.98;;;;;;;10.04;100.00;100966.19;4962138;28;20138;-80
2023/03/20 09:33:02;;;;;;;27.60;14.40;;;;;;;10.06;100.00;100961.75;4977260;28;20989;-80
2023/03/20 09:35:29;;;;;;;26.23;14.43;;;;;;;9.95;100.00;100967.19;4978977;28;20074;-80
2023/03/20 09:37:55;;;;;;;27.33;13.90;;;;;;;9.95;100.00;100966.31;4993469;28;20054;-80
2023/03/20 09:40:26;;;;;;;30.05;14.35;;;;;;;9.99;100.00;100960.09;4990668;28;20058;-79
2023/03/20 09:43:01;;;;;;;25.63;13.35;;;;;;;9.88;100.00;100961.09;4953795;28;20052;-79
2023/03/20 09:45:39;;;;;;;25.77;14.35;;;;;;;10.05;100.00;100965.28;4974789;28;20120;-80
2023/03/20 09:48:24;;;;;;;23.75;12.75;;;;;;;10.14;100.00;100957.25;4976424;28;20104;-80
2023/03/20 09:51:28;;;;;;;26.75;14.20;;;;;;;10.15;100.00;100957.22;4977698;28;20031;-79
2023/03/20 09:53:58;;;;;;;27.67;13.48;;;;;;;10.22;100.00;100957.13;4975814;28;20060;-79
2023/03/20 09:56:28;;;;;;;24.08;12.90;;;;;;;10.18;100.00;100958.09;4979673;28;20637;-79
2023/03/20 09:59:03;;;;;;;26.25;13.70;;;;;;;10.28;100.00;100957.97;4978370;28;20038;-79
2023/03/20 10:01:57;;;;;;;25.23;13.38;;;;;;;10.34;100.00;100959.63;4974492;28;20561;-81
2023/03/20 10:04:25;;;;;;;21.95;12.75;;;;;;;10.35;100.00;100956.97;4995387;28;20058;-80
2023/03/20 10:06:52;;;;;;;23.83;14.10;;;;;;;10.43;100.00;100957.75;4990447;28;20038;-80
2023/03/20 10:09:24;;;;;;;24.05;12.50;;;;;;;10.54;100.00;100956.69;4983303;28;20046;-78
2023/03/20 10:12:00;;;;;;;24.42;12.52;;;;;;;10.76;100.00;100960.72;5004609;28;20388;-78
2023/03/20 10:14:51;;;;;;;22.50;12.00;;;;;;;10.91;100.00;100960.47;4991302;28;20052;-79
2023/03/20 10:17:33;;;;;;;19.70;10.93;;;;;;;11.00;100.00;100959.44;4970987;28;20048;-78
2023/03/20 10:20:15;;;;;;;20.38;11.23;;;;;;;11.08;100.00;100954.00;4988443;28;20057;-78
2023/03/20 10:22:46;;;;;;;19.05;11.38;;;;;;;11.09;100.00;100947.81;4955060;28;20546;-79
2023/03/20 10:25:22;;;;;;;23.08;11.05;;;;;;;10.94;100.00;100951.63;4986285;28;20057;-79
2023/03/20 10:27:54;;;;;;;19.00;10.95;;;;;;;10.93;100.00;100948.13;4975194;28;20057;-79
2023/03/20 10:31:03;;;;;;;16.27;9.70;;;;;;;10.98;100.00;100955.94;4990923;28;20574;-79
2023/03/20 10:33:43;;;;;;;19.95;11.35;;;;;;;11.11;100.00;100941.63;4988479;28;20173;-78
2023/03/20 10:36:51;;;;;;;14.23;7.65;;;;;;;11.18;98.66;100947.66;4969145;28;20039;-77
2023/03/20 10:39:29;;;;;;;14.07;8.52;;;;;;;11.26;97.29;100956.31;4974193;28;20066;-79
2023/03/20 10:42:00;;;;;;;14.68;7.93;;;;;;;11.24;94.24;100937.84;5000531;28;20667;-79
2023/03/20 10:44:35;;;;;;;12.48;8.10;;;;;;;11.25;94.05;100941.34;4972761;28;20119;-78
2023/03/20 10:47:05;;;;;;;15.10;8.88;;;;;;;11.22;93.20;100936.13;4960591;28;20084;-79
2023/03/20 10:49:42;;;;;;;15.27;9.15;;;;;;;11.25;95.61;100952.81;4992833;28;20678;-79
2023/03/20 10:52:23;;;;;;;11.50;6.13;;;;;;;11.24;92.27;100959.00;4962517;28;20045;-78
2023/03/20 10:54:55;;;;;;;11.15;6.68;;;;;;;11.31;93.80;100956.25;4986579;28;20065;-79
2023/03/20 10:57:25;;;;;;;9.23;5.32;;;;;;;11.34;90.52;100959.69;4986634;28;20071;-81
2023/03/20 10:59:54;;;;;;;7.72;4.32;;;;;;;11.39;87.81;100952.56;4988435;28;20053;-78
2023/03/20 11:02:26;;;;;;;6.80;4.28;;;;;;;11.10;88.04;100946.91;4972646;28;20038;-79
2023/03/20 11:04:53;;;;;;;6.10;4.38;;;;;;;11.26;89.22;100958.97;5002725;28;20571;-80
2023/03/20 11:07:27;;;;;;;4.97;3.33;;;;;;;11.11;88.19;100949.56;4986954;28;20077;-80
2023/03/20 11:10:03;;;;;;;7.78;3.70;;;;;;;11.12;89.97;100955.72;4971376;28;20133;-81
2023/03/20 11:12:39;;;;;;;6.28;3.10;;;;;;;11.00;86.49;100955.03;5003698;28;20046;-79
2023/03/20 11:15:24;;;;;;;6.07;3.42;;;;;;;10.93;89.10;100945.47;5002634;28;20043;-80
2023/03/20 11:17:52;;;;;;;5.32;3.55;;;;;;;10.98;88.75;100954.19;4975197;28;20050;-79
2023/03/20 11:20:19;;;;;;;5.05;3.33;;;;;;;10.99;89.69;100942.69;4958752;28;20058;-78
2023/03/20 11:22:47;;;;;;;8.10;4.50;;;;;;;10.91;86.74;100943.72;4996889;28;20152;-80
2023/03/20 11:25:34;;;;;;;45.53;29.00;;;;;;;10.78;88.60;100942.22;4996354;28;20038;-79
2023/03/20 11:28:25;;;;;;;11.32;8.23;;;;;;;10.75;92.11;100951.03;4979191;28;20644;-80
2023/03/20 11:31:04;;;;;;;23.25;20.80;;;;;;;10.64;93.30;100955.66;4990258;28;20034;-81
2023/03/20 11:33:42;;;;;;;9.18;8.27;;;;;;;10.69;94.38;100940.59;4987753;28;20073;-80
2023/03/20 11:36:18;;;;;;;4.85;4.00;;;;;;;10.59;97.51;100953.06;4994039;28;20050;-80